Time;durP1;ratioP1;P1;durP2;ratioP2;P2;SDS_P1;SDS_P2;PMS_P1;PMS_P2;Temp;Humidity;BMP_temperature;BMP_pressure;BME280_temperature;BME280_humidity;BME280_pressure;Samples;Min_cycle;Max_cycle;Signal;HPM_P1;HPM_P2
2022/08/19 00:01:32;;;;;;;26.20;20.95;;;20.00;83.60;;;;;;5076917;28;20160;-86
2022/08/19 00:04:00;;;;;;;26.90;21.77;;;20.10;83.50;;;;;;5075405;28;20286;-87
2022/08/19 00:06:27;;;;;;;25.05;19.65;;;20.10;83.40;;;;;;5076462;28;20213;-87
2022/08/19 00:08:53;;;;;;;27.15;19.95;;;20.10;83.30;;;;;;5075396;28;20720;-86
2022/08/19 00:11:20;;;;;;;21.75;19.08;;;20.10;83.20;;;;;;5076523;28;20251;-86
2022/08/19 00:13:48;;;;;;;26.30;18.83;;;20.10;83.10;;;;;;5075180;28;20195;-86
2022/08/19 00:16:14;;;;;;;25.27;18.92;;;20.00;83.20;;;;;;5074999;28;20199;-87
2022/08/19 00:18:40;;;;;;;24.60;18.55;;;20.10;83.30;;;;;;5075129;28;20175;-87
2022/08/19 00:21:09;;;;;;;21.88;17.83;;;20.10;83.30;;;;;;5076781;28;20171;-87
2022/08/19 00:23:36;;;;;;;23.80;19.10;;;20.10;83.40;;;;;;5075222;28;20671;-87
2022/08/19 00:26:03;;;;;;;24.65;17.77;;;20.10;83.40;;;;;;5075147;28;20215;-87
2022/08/19 00:28:29;;;;;;;22.80;17.25;;;20.10;83.50;;;;;;5075220;28;20247;-87
2022/08/19 00:30:55;;;;;;;23.15;18.27;;;20.10;83.50;;;;;;5076564;28;20185;-87
2022/08/19 00:33:21;;;;;;;24.33;18.08;;;20.10;83.40;;;;;;5075378;28;20187;-87
2022/08/19 00:35:46;;;;;;;22.40;18.08;;;20.10;83.50;;;;;;5076458;28;20194;-87
2022/08/19 00:38:12;;;;;;;24.13;18.08;;;20.10;83.50;;;;;;5076272;28;20180;-87
2022/08/19 00:40:38;;;;;;;27.80;18.88;;;20.10;83.50;;;;;;5074829;28;20187;-87
2022/08/19 00:43:12;;;;;;;25.67;18.70;;;20.10;83.70;;;;;;5074850;28;20210;-87
2022/08/19 00:45:41;;;;;;;30.83;18.40;;;20.10;83.60;;;;;;5074637;28;20222;-87
2022/08/19 00:48:07;;;;;;;28.58;18.67;;;20.00;83.80;;;;;;5074527;28;20179;-87
2022/08/19 00:50:34;;;;;;;31.45;18.15;;;20.00;84.00;;;;;;5074524;28;20193;-87
2022/08/19 00:53:03;;;;;;;28.90;18.25;;;20.00;84.30;;;;;;5074682;28;20178;-87
2022/08/19 00:55:32;;;;;;;35.40;17.92;;;19.90;84.50;;;;;;5074394;28;20202;-87
2022/08/19 00:58:06;;;;;;;36.17;18.50;;;20.00;84.60;;;;;;5074302;28;20172;-88
2022/08/19 01:00:36;;;;;;;26.02;17.02;;;19.90;84.60;;;;;;5075727;28;20187;-87
2022/08/19 01:03:06;;;;;;;37.08;20.23;;;19.80;84.90;;;;;;5074513;28;20171;-87
2022/08/19 01:05:32;;;;;;;39.72;19.42;;;19.90;85.00;;;;;;5074442;28;20214;-87
2022/08/19 01:08:00;;;;;;;39.58;21.17;;;19.80;85.00;;;;;;5074338;28;20175;-86
2022/08/19 01:10:29;;;;;;;36.00;19.63;;;19.80;85.30;;;;;;5075410;28;20581;-87
2022/08/19 01:12:55;;;;;;;40.60;18.95;;;19.80;85.30;;;;;;5074062;28;20178;-88
2022/08/19 01:15:26;;;;;;;36.63;19.35;;;19.70;85.50;;;;;;5075624;28;20267;-87
2022/08/19 01:17:53;;;;;;;34.72;18.48;;;19.70;85.70;;;;;;5074326;28;20182;-87
2022/08/19 01:20:21;;;;;;;39.08;18.23;;;19.70;85.80;;;;;;5074079;28;20724;-88
2022/08/19 01:22:58;;;;;;;33.25;17.02;;;19.70;85.70;;;;;;5074170;28;20229;-88
2022/08/19 01:25:35;;;;;;;34.63;17.90;;;19.70;85.80;;;;;;5074102;28;20637;-87
2022/08/19 01:28:02;;;;;;;33.20;17.83;;;19.70;85.80;;;;;;5073665;28;20167;-88
2022/08/19 01:30:31;;;;;;;40.95;20.63;;;19.70;85.70;;;;;;5074797;28;20175;-88
2022/08/19 01:33:00;;;;;;;29.15;17.75;;;19.70;85.80;;;;;;5073432;28;20172;-88
2022/08/19 01:35:31;;;;;;;31.23;20.05;;;19.70;85.80;;;;;;5074918;28;20230;-88
2022/08/19 01:38:07;;;;;;;33.80;21.30;;;19.70;85.90;;;;;;5073504;28;20202;-88
2022/08/19 01:40:35;;;;;;;34.25;22.38;;;19.60;86.00;;;;;;5073560;28;20182;-88
2022/08/19 01:43:02;;;;;;;31.10;21.30;;;19.70;86.10;;;;;;5073329;28;20549;-87
2022/08/19 01:45:30;;;;;;;38.08;22.85;;;19.60;86.10;;;;;;5074537;28;20226;-87
2022/08/19 01:47:58;;;;;;;33.45;23.23;;;19.60;86.50;;;;;;5073285;28;20171;-88
2022/08/19 01:50:24;;;;;;;32.88;22.52;;;19.60;86.60;;;;;;5073133;28;20752;-88
2022/08/19 01:52:50;;;;;;;27.95;21.17;;;19.60;86.50;;;;;;5073062;28;20270;-88
2022/08/19 01:55:18;;;;;;;30.45;22.17;;;19.70;86.40;;;;;;5072916;28;20174;-88
2022/08/19 01:57:48;;;;;;;36.17;21.83;;;19.60;86.20;;;;;;5074033;28;20641;-87
2022/08/19 02:00:16;;;;;;;28.98;21.70;;;19.60;86.20;;;;;;5072777;28;20199;-87
2022/08/19 02:02:42;;;;;;;30.52;20.05;;;19.60;86.20;;;;;;5072967;28;20185;-88
2022/08/19 02:05:08;;;;;;;24.88;18.10;;;19.60;86.40;;;;;;5072809;28;20263;-88
2022/08/19 02:07:38;;;;;;;31.70;20.08;;;19.60;86.30;;;;;;5072946;28;20213;-89
2022/08/19 02:10:07;;;;;;;32.85;20.00;;;19.60;86.20;;;;;;5072696;28;20688;-88
2022/08/19 02:12:33;;;;;;;30.23;21.52;;;19.60;86.30;;;;;;5072661;28;20184;-87
2022/08/19 02:15:00;;;;;;;29.17;22.45;;;19.50;86.50;;;;;;5072898;28;20175;-87
2022/08/19 02:17:28;;;;;;;34.08;25.40;;;19.40;86.60;;;;;;5073300;28;20164;-88
2022/08/19 02:19:53;;;;;;;40.22;25.60;;;19.40;87.20;;;;;;5072666;28;20182;-88
2022/08/19 02:22:19;;;;;;;36.83;24.70;;;19.30;87.00;;;;;;5073827;28;20179;-88
2022/08/19 02:24:45;;;;;;;37.55;23.95;;;19.20;87.20;;;;;;5073872;28;20191;-88
2022/08/19 02:27:10;;;;;;;41.33;24.42;;;19.20;87.60;;;;;;5073724;28;20564;-88
2022/08/19 02:29:36;;;;;;;38.15;25.20;;;19.30;87.50;;;;;;5072647;28;20549;-88
2022/08/19 02:32:02;;;;;;;37.95;23.73;;;19.30;87.50;;;;;;5072401;28;20201;-88
2022/08/19 02:34:27;;;;;;;39.72;24.20;;;19.30;87.30;;;;;;5072351;28;20171;-88
2022/08/19 02:36:53;;;;;;;38.78;23.27;;;19.20;87.50;;;;;;5072345;28;20191;-88
2022/08/19 02:39:18;;;;;;;36.60;23.85;;;19.20;87.80;;;;;;5072401;28;20718;-88
2022/08/19 02:41:44;;;;;;;40.13;26.67;;;19.20;87.80;;;;;;5073418;28;20702;-88
2022/08/19 02:44:10;;;;;;;48.30;32.40;;;19.20;87.90;;;;;;5072366;28;20189;-88
2022/08/19 02:46:36;;;;;;;45.55;31.63;;;19.20;88.10;;;;;;5072079;28;20218;-88
2022/08/19 02:49:05;;;;;;;41.67;30.48;;;19.20;88.20;;;;;;5073482;28;20630;-88
2022/08/19 02:51:33;;;;;;;44.08;30.08;;;19.20;88.30;;;;;;5073343;28;20620;-88
2022/08/19 02:53:59;;;;;;;41.58;29.25;;;19.20;88.30;;;;;;5073418;28;20542;-88
2022/08/19 02:56:27;;;;;;;34.88;27.75;;;19.20;88.20;;;;;;5072221;28;20286;-89
2022/08/19 02:58:53;;;;;;;38.35;27.75;;;19.20;88.00;;;;;;5072237;28;20183;-88
2022/08/19 03:01:40;;;;;;;37.50;25.35;;;19.20;88.00;;;;;;5074654;28;20182;-89
2022/08/19 03:04:06;;;;;;;37.25;23.58;;;19.20;87.90;;;;;;5072113;28;20668;-88
2022/08/19 03:06:32;;;;;;;25.20;18.17;;;19.20;87.80;;;;;;5072047;28;20344;-87
2022/08/19 03:08:58;;;;;;;19.75;14.77;;;19.10;87.80;;;;;;5073409;28;20214;-88
2022/08/19 03:11:33;;;;;;;15.40;12.68;;;18.90;88.50;;;;;;5072003;28;20646;-87
2022/08/19 03:14:00;;;;;;;16.05;12.25;;;18.80;88.60;;;;;;5071966;28;20510;-88
2022/08/19 03:16:29;;;;;;;18.63;12.60;;;18.70;88.80;;;;;;5071996;28;20684;-88
2022/08/19 03:18:59;;;;;;;20.05;13.35;;;18.70;88.70;;;;;;5071942;28;20171;-88
2022/08/19 03:21:27;;;;;;;16.70;12.35;;;18.70;88.80;;;;;;5073155;28;20262;-88
2022/08/19 03:23:57;;;;;;;17.90;12.65;;;18.60;89.00;;;;;;5071927;28;20187;-88
2022/08/19 03:26:23;;;;;;;17.60;13.10;;;18.60;89.10;;;;;;5072941;28;20740;-87
2022/08/19 03:28:49;;;;;;;17.17;12.93;;;18.70;89.00;;;;;;5074392;28;20214;-88
2022/08/19 03:31:17;;;;;;;16.15;11.52;;;18.60;88.90;;;;;;5077377;28;20213;-88
2022/08/19 03:33:44;;;;;;;13.95;10.80;;;18.70;88.90;;;;;;5075839;28;20181;-88
2022/08/19 03:36:13;;;;;;;15.93;11.82;;;18.60;88.70;;;;;;5075794;28;20195;-87
2022/08/19 03:38:42;;;;;;;18.52;13.32;;;18.60;88.70;;;;;;5075861;28;20211;-87
2022/08/19 03:41:11;;;;;;;14.68;13.00;;;18.40;88.90;;;;;;5075673;28;20202;-88
2022/08/19 03:43:38;;;;;;;14.75;11.70;;;18.50;89.00;;;;;;5076921;28;20175;-88
2022/08/19 03:46:15;;;;;;;15.43;10.80;;;18.50;89.00;;;;;;5076674;28;20693;-88
2022/08/19 03:48:42;;;;;;;15.43;10.55;;;18.50;89.00;;;;;;5075466;28;20190;-88
2022/08/19 03:51:22;;;;;;;16.63;10.02;;;18.60;88.80;;;;;;5075609;28;20202;-88
2022/08/19 03:53:48;;;;;;;12.32;9.57;;;18.60;88.70;;;;;;5075482;28;20167;-88
2022/08/19 03:56:14;;;;;;;10.32;9.10;;;18.60;88.50;;;;;;5076676;28;20195;-88
2022/08/19 03:58:41;;;;;;;14.18;8.30;;;18.70;88.50;;;;;;5075262;28;20219;-87
2022/08/19 04:01:14;;;;;;;11.10;9.13;;;18.60;88.30;;;;;;5076563;28;20179;-87
2022/08/19 04:03:40;;;;;;;14.35;8.85;;;18.50;88.10;;;;;;5075347;28;20167;-88
2022/08/19 04:06:15;;;;;;;13.48;8.93;;;18.60;88.20;;;;;;5076351;28;20213;-88
2022/08/19 04:08:43;;;;;;;12.27;9.15;;;18.50;88.30;;;;;;5075180;28;20167;-87
2022/08/19 04:11:14;;;;;;;12.43;8.85;;;18.50;88.30;;;;;;5076506;28;20167;-87
2022/08/19 04:13:43;;;;;;;10.30;8.60;;;18.60;88.30;;;;;;5075132;28;20172;-87
2022/08/19 04:16:09;;;;;;;9.35;8.20;;;18.70;88.30;;;;;;5076181;28;20198;-88
2022/08/19 04:18:37;;;;;;;13.00;8.93;;;18.70;88.10;;;;;;5075020;28;20586;-87
2022/08/19 04:21:03;;;;;;;10.52;8.43;;;18.60;88.10;;;;;;5075482;28;20544;-88
2022/08/19 04:23:29;;;;;;;12.18;9.23;;;18.50;88.20;;;;;;5074972;28;20637;-88
2022/08/19 04:25:55;;;;;;;15.23;9.60;;;18.50;88.30;;;;;;5075918;28;20286;-88
2022/08/19 04:28:22;;;;;;;9.80;8.05;;;18.50;88.40;;;;;;5076478;28;20206;-89
2022/08/19 04:30:50;;;;;;;9.57;7.45;;;18.40;88.60;;;;;;5074799;28;20267;-89
2022/08/19 04:33:19;;;;;;;12.73;8.10;;;18.40;88.60;;;;;;5074609;28;20176;-89
2022/08/19 04:35:48;;;;;;;17.10;8.27;;;18.30;89.00;;;;;;5075828;28;20202;-89
2022/08/19 04:38:15;;;;;;;15.52;8.95;;;18.30;89.10;;;;;;5074568;28;20179;-89
2022/08/19 04:43:40;;;;;;;16.25;9.93;;;18.30;89.30;;;;;;5073910;28;20340;-89
2022/08/19 04:46:08;;;;;;;14.57;8.65;;;18.30;89.60;;;;;;5074367;28;20684;-89
2022/08/19 04:48:35;;;;;;;12.63;9.95;;;18.30;89.50;;;;;;5074731;28;20178;-89
2022/08/19 04:51:01;;;;;;;12.60;9.32;;;18.30;89.40;;;;;;5075749;28;20175;-89
2022/08/19 04:53:29;;;;;;;13.00;9.77;;;18.20;89.70;;;;;;5074244;28;20172;-89
2022/08/19 04:55:57;;;;;;;17.30;10.18;;;18.20;89.70;;;;;;5074136;28;20252;-89
2022/08/19 04:58:24;;;;;;;11.18;9.18;;;18.20;89.80;;;;;;5074201;28;20207;-89
2022/08/19 05:00:50;;;;;;;13.98;9.05;;;18.30;89.70;;;;;;5075265;28;20183;-89
2022/08/19 05:03:16;;;;;;;12.88;8.35;;;18.30;89.50;;;;;;5075272;28;20167;-89
2022/08/19 05:05:43;;;;;;;10.55;8.13;;;18.30;89.50;;;;;;5075067;28;20203;-89
2022/08/19 05:08:09;;;;;;;10.75;8.20;;;18.30;89.30;;;;;;5075220;28;20170;-89
2022/08/19 05:10:36;;;;;;;10.45;8.23;;;18.30;89.20;;;;;;5073910;28;20167;-89
2022/08/19 05:13:02;;;;;;;12.00;8.38;;;18.40;89.30;;;;;;5075088;28;20171;-89
2022/08/19 05:15:28;;;;;;;10.48;8.27;;;18.40;89.10;;;;;;5074956;28;20198;-89
2022/08/19 05:23:22;;;;;;;10.02;8.35;;;18.40;88.50;;;;;;5074987;28;20194;-88
2022/08/19 05:25:48;;;;;;;10.90;7.55;;;18.50;88.50;;;;;;5074733;28;20239;-89
2022/08/19 05:28:14;;;;;;;10.57;7.75;;;18.40;88.50;;;;;;5074751;28;20185;-88
2022/08/19 05:30:40;;;;;;;12.77;8.38;;;18.40;88.40;;;;;;5073521;28;20228;-89
2022/08/19 05:33:07;;;;;;;10.55;7.70;;;18.40;88.60;;;;;;5074689;28;20538;-89
2022/08/19 05:35:33;;;;;;;10.13;7.68;;;18.40;88.40;;;;;;5073189;28;20290;-89
2022/08/19 05:37:58;;;;;;;11.27;8.48;;;18.30;88.40;;;;;;5074591;28;20672;-88
2022/08/19 05:40:24;;;;;;;12.77;8.20;;;18.40;88.50;;;;;;5074863;28;20172;-88
2022/08/19 05:42:50;;;;;;;9.90;7.97;;;18.40;88.30;;;;;;5073285;28;20240;-89
2022/08/19 05:45:15;;;;;;;10.07;8.73;;;18.40;88.30;;;;;;5073113;28;20229;-89
2022/08/19 05:47:41;;;;;;;10.98;7.45;;;18.50;88.30;;;;;;5074401;28;20206;-88
2022/08/19 05:50:07;;;;;;;14.45;8.00;;;18.50;88.30;;;;;;5074370;28;20159;-88
2022/08/19 05:52:32;;;;;;;12.70;7.47;;;18.50;88.10;;;;;;5072029;28;20171;-88
2022/08/19 05:54:58;;;;;;;8.75;7.68;;;18.50;88.20;;;;;;5073368;28;20317;-89
2022/08/19 05:57:24;;;;;;;8.68;7.22;;;18.40;88.20;;;;;;5072904;28;20179;-88
2022/08/19 05:59:51;;;;;;;10.05;8.00;;;18.50;88.40;;;;;;5074177;28;20270;-89
2022/08/19 06:02:16;;;;;;;12.52;7.40;;;18.60;88.40;;;;;;5072955;28;20185;-88
2022/08/19 06:04:45;;;;;;;8.40;7.60;;;18.60;88.40;;;;;;5073972;28;20171;-88
2022/08/19 06:07:10;;;;;;;10.13;6.97;;;18.60;88.40;;;;;;5073967;28;20669;-89
2022/08/19 06:09:37;;;;;;;10.15;6.22;;;18.60;88.30;;;;;;5074284;28;20183;-89
2022/08/19 06:12:04;;;;;;;10.60;7.20;;;18.50;88.20;;;;;;5073955;28;20190;-89
2022/08/19 06:14:32;;;;;;;10.50;7.05;;;18.60;88.30;;;;;;5072756;28;20176;-88
2022/08/19 06:17:01;;;;;;;10.60;7.70;;;18.70;88.20;;;;;;5073772;28;20230;-88
2022/08/19 06:19:29;;;;;;;12.10;7.20;;;18.70;88.10;;;;;;5074092;28;20544;-89
2022/08/19 06:21:57;;;;;;;10.63;6.43;;;18.70;88.00;;;;;;5072602;28;20195;-88
2022/08/19 06:24:25;;;;;;;9.75;7.03;;;18.60;87.90;;;;;;5072481;28;20179;-89
2022/08/19 06:26:53;;;;;;;8.57;7.05;;;18.50;88.10;;;;;;5072242;28;20211;-88
2022/08/19 06:29:22;;;;;;;9.60;6.40;;;18.60;88.20;;;;;;5072489;28;20220;-89
2022/08/19 06:31:51;;;;;;;10.50;7.47;;;18.50;88.10;;;;;;5073997;28;20179;-89
2022/08/19 06:34:18;;;;;;;9.95;7.38;;;18.50;88.10;;;;;;5072848;28;20266;-88
2022/08/19 06:36:50;;;;;;;12.68;7.47;;;18.60;88.20;;;;;;5073355;28;20191;-88
2022/08/19 06:39:25;;;;;;;9.48;7.47;;;18.60;88.20;;;;;;5073573;28;20213;-90
2022/08/19 06:41:54;;;;;;;9.93;7.47;;;18.60;88.20;;;;;;5072573;28;20167;-90
2022/08/19 06:44:22;;;;;;;9.23;8.15;;;18.70;88.20;;;;;;5073279;28;20467;-89
2022/08/19 06:46:48;;;;;;;12.80;8.45;;;18.70;88.20;;;;;;5072043;28;20261;-88
2022/08/19 06:49:16;;;;;;;14.27;9.15;;;18.50;88.10;;;;;;5073673;28;20167;-89
2022/08/19 06:51:47;;;;;;;10.27;9.27;;;18.50;88.20;;;;;;5072176;28;20182;-89
2022/08/19 06:54:14;;;;;;;13.45;9.55;;;18.50;88.30;;;;;;5072288;28;20669;-90
2022/08/19 06:56:39;;;;;;;10.45;8.55;;;18.40;88.70;;;;;;5072168;28;20203;-89
2022/08/19 06:59:08;;;;;;;10.18;8.63;;;18.40;88.90;;;;;;5071933;28;20191;-90
2022/08/19 07:01:37;;;;;;;12.82;9.77;;;18.50;89.00;;;;;;5072072;28;20186;-90
2022/08/19 07:04:03;;;;;;;11.55;10.35;;;18.30;89.20;;;;;;5071749;28;20672;-90
2022/08/19 07:06:30;;;;;;;11.77;9.80;;;18.40;89.50;;;;;;5071785;28;20207;-90
2022/08/19 07:08:57;;;;;;;14.23;9.48;;;18.30;89.50;;;;;;5072085;28;20555;-90
2022/08/19 07:11:23;;;;;;;13.63;9.57;;;18.30;89.80;;;;;;5071922;28;20332;-90
2022/08/19 07:13:48;;;;;;;12.07;10.55;;;18.30;90.00;;;;;;5072020;28;20649;-90
2022/08/19 07:16:16;;;;;;;11.98;9.55;;;18.30;89.90;;;;;;5071855;28;20222;-89
2022/08/19 07:18:44;;;;;;;14.80;10.55;;;18.30;90.20;;;;;;5072180;28;20178;-90
2022/08/19 07:21:13;;;;;;;12.82;10.57;;;18.20;90.30;;;;;;5072396;28;20179;-89
2022/08/19 07:23:39;;;;;;;13.80;10.48;;;18.30;90.20;;;;;;5071996;28;20178;-90
2022/08/19 07:26:08;;;;;;;11.32;10.13;;;18.20;90.10;;;;;;5072141;28;20207;-89
2022/08/19 07:28:33;;;;;;;12.13;10.40;;;18.30;89.90;;;;;;5071797;28;20180;-89
2022/08/19 07:31:00;;;;;;;13.18;10.25;;;18.20;89.90;;;;;;5071879;28;20653;-89
2022/08/19 07:33:26;;;;;;;11.13;10.02;;;18.30;89.90;;;;;;5071845;28;20178;-89
2022/08/19 07:35:52;;;;;;;13.32;10.80;;;18.30;89.70;;;;;;5071608;28;20750;-90
2022/08/19 07:38:17;;;;;;;15.00;10.00;;;18.30;89.60;;;;;;5071771;28;20184;-89
2022/08/19 07:40:45;;;;;;;14.05;10.73;;;18.30;89.70;;;;;;5073158;28;20260;-90
2022/08/19 07:43:11;;;;;;;16.20;11.23;;;18.30;89.80;;;;;;5072862;28;20174;-89
2022/08/19 07:45:37;;;;;;;16.50;11.35;;;18.40;89.70;;;;;;5071655;28;20211;-89
2022/08/19 07:48:03;;;;;;;14.85;9.80;;;18.40;89.60;;;;;;5071628;28;20172;-89
2022/08/19 07:50:29;;;;;;;14.07;10.65;;;18.50;89.60;;;;;;5071648;28;20305;-88
2022/08/19 07:52:55;;;;;;;13.13;10.93;;;18.60;89.50;;;;;;5071679;28;20228;-89
2022/08/19 07:55:25;;;;;;;13.27;11.02;;;18.70;89.30;;;;;;5072989;28;20194;-90
2022/08/19 07:57:52;;;;;;;16.08;11.23;;;18.80;89.30;;;;;;5071611;28;20174;-90
2022/08/19 08:00:18;;;;;;;20.33;13.07;;;18.80;88.90;;;;;;5071448;28;20269;-89
2022/08/19 08:02:44;;;;;;;16.08;11.98;;;18.90;88.60;;;;;;5072986;28;20717;-89
2022/08/19 08:10:38;;;;;;;21.85;13.10;;;19.10;88.00;;;;;;5072946;28;20186;-89
2022/08/19 08:13:05;;;;;;;16.73;12.57;;;19.10;88.20;;;;;;5071463;28;20175;-89
2022/08/19 08:15:31;;;;;;;17.02;12.68;;;19.10;88.20;;;;;;5074229;28;20593;-88
2022/08/19 08:17:57;;;;;;;15.88;12.13;;;18.90;87.90;;;;;;5076285;28;20171;-88
2022/08/19 08:20:23;;;;;;;20.20;13.63;;;18.70;88.50;;;;;;5076145;28;20340;-88
2022/08/19 08:25:35;;;;;;;20.40;14.18;;;18.70;88.80;;;;;;5077532;28;20210;-89
2022/08/19 08:28:00;;;;;;;16.90;13.38;;;18.70;88.80;;;;;;5074798;28;20176;-89
2022/08/19 08:30:28;;;;;;;18.60;13.18;;;18.70;88.90;;;;;;5074693;28;20175;-90
2022/08/19 08:32:54;;;;;;;15.90;13.40;;;18.80;88.80;;;;;;5074641;28;20721;-89
2022/08/19 08:35:22;;;;;;;19.70;13.60;;;18.80;89.00;;;;;;5076121;28;20270;-89
2022/08/19 08:37:49;;;;;;;17.15;13.98;;;18.80;89.20;;;;;;5074576;28;20440;-89
2022/08/19 08:40:37;;;;;;;19.77;13.35;;;18.80;89.10;;;;;;5075833;28;20175;-89
2022/08/19 08:43:09;;;;;;;15.30;13.60;;;18.80;89.00;;;;;;5074541;28;20206;-88
2022/08/19 08:45:41;;;;;;;20.60;14.25;;;18.70;88.80;;;;;;5074374;28;20256;-90
2022/08/19 08:48:24;;;;;;;16.02;12.95;;;18.80;89.20;;;;;;5074452;28;20168;-90
2022/08/19 08:50:53;;;;;;;18.52;13.85;;;18.80;89.30;;;;;;5074542;28;20163;-89
2022/08/19 08:53:20;;;;;;;21.70;14.32;;;18.80;89.20;;;;;;5074445;28;20590;-88
2022/08/19 08:55:46;;;;;;;19.63;14.48;;;18.80;89.40;;;;;;5074216;28;20202;-89
2022/08/19 08:58:19;;;;;;;19.27;13.95;;;18.80;89.30;;;;;;5074293;28;20174;-88
2022/08/19 09:00:47;;;;;;;16.00;14.20;;;18.80;89.30;;;;;;5075350;28;20713;-89
2022/08/19 09:03:22;;;;;;;19.92;15.38;;;18.90;89.30;;;;;;5074139;28;20210;-89
2022/08/19 09:05:56;;;;;;;16.30;13.82;;;19.00;89.30;;;;;;5075238;28;20563;-89
2022/08/19 09:09:02;;;;;;;14.90;12.48;;;19.00;89.30;;;;;;5074043;28;20171;-89
2022/08/19 09:11:43;;;;;;;15.18;12.15;;;19.10;89.30;;;;;;5073993;28;20653;-89
2022/08/19 09:14:32;;;;;;;17.63;12.50;;;19.30;89.00;;;;;;5073907;28;20164;-88
2022/08/19 09:16:59;;;;;;;17.83;13.38;;;19.40;88.80;;;;;;5073744;28;20206;-87
2022/08/19 09:19:25;;;;;;;23.67;14.98;;;19.50;88.60;;;;;;5074021;28;20179;-89
2022/08/19 09:21:50;;;;;;;15.57;12.55;;;19.50;88.40;;;;;;5074975;28;20172;-89
2022/08/19 09:24:16;;;;;;;19.75;12.57;;;19.50;88.30;;;;;;5073816;28;20229;-89
2022/08/19 09:26:43;;;;;;;17.67;13.68;;;19.60;88.40;;;;;;5075512;28;20207;-89
2022/08/19 09:29:10;;;;;;;16.58;14.73;;;19.70;88.30;;;;;;5073769;28;20171;-89
2022/08/19 09:31:36;;;;;;;20.45;15.88;;;19.70;88.20;;;;;;5074128;28;20292;-89
2022/08/19 09:34:04;;;;;;;18.48;14.50;;;19.70;88.10;;;;;;5073531;28;20176;-89
2022/08/19 09:36:32;;;;;;;23.60;14.20;;;19.70;88.00;;;;;;5073440;28;20199;-89
2022/08/19 09:38:59;;;;;;;23.92;15.40;;;19.60;87.90;;;;;;5073524;28;20178;-89
2022/08/19 09:41:27;;;;;;;20.83;15.73;;;19.60;88.10;;;;;;5073938;28;20546;-91
2022/08/19 09:43:57;;;;;;;24.55;16.55;;;19.70;88.30;;;;;;5073431;28;20185;-89
2022/08/19 09:46:26;;;;;;;20.13;14.88;;;19.70;88.00;;;;;;5073652;28;20251;-90
2022/08/19 09:48:53;;;;;;;23.95;17.45;;;19.70;87.70;;;;;;5073347;28;20195;-91
2022/08/19 09:51:22;;;;;;;25.90;18.58;;;19.70;87.60;;;;;;5073234;28;20217;-90
2022/08/19 09:53:53;;;;;;;32.38;21.80;;;19.80;87.90;;;;;;5073404;28;20168;-90
2022/08/19 09:56:20;;;;;;;26.55;20.67;;;19.90;87.70;;;;;;5073106;28;20199;-90
2022/08/19 09:58:46;;;;;;;25.08;18.02;;;20.00;87.40;;;;;;5073577;28;20171;-90
2022/08/19 10:01:26;;;;;;;27.13;16.90;;;20.20;87.30;;;;;;5073878;28;20182;-90
2022/08/19 10:03:54;;;;;;;19.92;15.43;;;20.20;87.00;;;;;;5074303;28;20166;-90
2022/08/19 10:06:22;;;;;;;21.05;15.00;;;20.20;86.50;;;;;;5073236;28;20581;-90
2022/08/19 10:08:49;;;;;;;21.60;17.00;;;20.30;86.50;;;;;;5072819;28;20524;-90
2022/08/19 10:11:16;;;;;;;19.33;14.95;;;20.40;86.40;;;;;;5073937;28;20206;-91
2022/08/19 10:13:43;;;;;;;25.45;15.85;;;20.50;85.80;;;;;;5073234;28;20533;-90
2022/08/19 10:16:12;;;;;;;23.70;15.63;;;20.40;85.70;;;;;;5073963;28;20221;-91
2022/08/19 10:18:42;;;;;;;20.85;16.13;;;20.30;85.70;;;;;;5072549;28;20179;-90
2022/08/19 10:21:11;;;;;;;25.95;17.30;;;20.20;85.90;;;;;;5072865;28;20187;-91
2022/08/19 10:23:38;;;;;;;21.70;16.92;;;20.20;85.90;;;;;;5072537;28;20221;-91
2022/08/19 10:26:07;;;;;;;18.25;15.13;;;20.30;85.80;;;;;;5072355;28;20210;-91
2022/08/19 10:28:37;;;;;;;19.05;15.63;;;20.40;85.60;;;;;;5072705;28;20185;-90
2022/08/19 10:31:13;;;;;;;21.17;18.92;;;20.50;85.60;;;;;;5073820;28;20634;-90
2022/08/19 10:33:39;;;;;;;26.95;20.80;;;20.50;85.10;;;;;;5072699;28;20525;-91
2022/08/19 10:36:14;;;;;;;24.02;18.00;;;20.70;85.00;;;;;;5072245;28;20290;-90
2022/08/19 10:38:41;;;;;;;21.05;18.15;;;20.80;84.80;;;;;;5072056;28;20186;-91
2022/08/19 10:41:12;;;;;;;23.35;19.23;;;20.80;84.40;;;;;;5072485;28;20175;-89
2022/08/19 10:43:39;;;;;;;22.10;19.05;;;21.00;83.90;;;;;;5075534;28;20542;-91
2022/08/19 10:46:10;;;;;;;21.83;18.35;;;21.10;83.90;;;;;;5075129;28;20588;-90
2022/08/19 10:48:36;;;;;;;19.85;17.42;;;21.20;83.90;;;;;;5072596;28;20579;-90
2022/08/19 10:53:46;;;;;;;18.60;16.70;;;21.40;83.50;;;;;;5073941;28;20157;-90
2022/08/19 10:58:57;;;;;;;19.20;15.70;;;21.60;81.60;;;;;;5073658;28;20590;-90
2022/08/19 11:01:24;;;;;;;18.88;17.02;;;21.70;81.50;;;;;;5071945;28;20179;-90
2022/08/19 11:03:50;;;;;;;19.40;16.90;;;21.70;81.20;;;;;;5073303;28;20224;-90
2022/08/19 11:06:15;;;;;;;21.27;18.75;;;21.70;81.20;;;;;;5071882;28;20211;-90
2022/08/19 11:08:41;;;;;;;23.73;18.95;;;21.70;81.40;;;;;;5071978;28;20186;-90
2022/08/19 11:11:08;;;;;;;19.77;17.45;;;21.40;81.80;;;;;;5071862;28;20262;-90
2022/08/19 11:13:37;;;;;;;16.50;14.80;;;21.30;82.00;;;;;;5073132;28;20171;-90
2022/08/19 11:16:06;;;;;;;17.40;15.57;;;21.30;82.00;;;;;;5072004;28;20195;-90
2022/08/19 11:18:32;;;;;;;18.65;15.70;;;21.30;82.00;;;;;;5072001;28;20198;-90
2022/08/19 11:21:19;;;;;;;17.13;15.32;;;21.20;82.50;;;;;;5071976;28;20171;-90
2022/08/19 11:23:46;;;;;;;18.00;15.68;;;21.10;83.00;;;;;;5073167;28;20260;-89
2022/08/19 11:26:13;;;;;;;17.35;15.40;;;21.10;83.30;;;;;;5071804;28;20257;-89
2022/08/19 11:28:39;;;;;;;17.92;15.27;;;21.10;83.50;;;;;;5073204;28;20304;-90
2022/08/19 11:31:30;;;;;;;18.38;15.70;;;21.20;83.30;;;;;;5071822;28;20228;-89
2022/08/19 11:33:59;;;;;;;19.15;17.05;;;21.40;82.80;;;;;;5071772;28;20649;-91
2022/08/19 11:36:25;;;;;;;19.67;17.20;;;21.50;82.40;;;;;;5072869;28;20195;-89
2022/08/19 11:38:50;;;;;;;21.60;18.45;;;21.50;82.50;;;;;;5072014;28;20171;-89
2022/08/19 11:41:18;;;;;;;20.38;18.00;;;21.50;82.50;;;;;;5071670;28;20179;-89
2022/08/19 11:43:44;;;;;;;21.13;18.60;;;21.50;82.20;;;;;;5071910;28;20266;-89
2022/08/19 11:46:12;;;;;;;21.05;18.63;;;21.60;82.10;;;;;;5071653;28;20668;-90
2022/08/19 11:48:39;;;;;;;20.70;18.35;;;21.40;81.50;;;;;;5071665;28;20176;-91
2022/08/19 11:51:08;;;;;;;20.00;17.40;;;21.50;81.80;;;;;;5075075;28;20176;-90
2022/08/19 11:53:35;;;;;;;19.10;17.15;;;21.70;82.20;;;;;;5076879;28;20228;-90
2022/08/19 11:56:00;;;;;;;19.95;17.85;;;21.80;81.80;;;;;;5075893;28;20202;-89
2022/08/19 11:58:26;;;;;;;22.13;16.75;;;22.00;81.70;;;;;;5076579;28;20175;-90
2022/08/19 12:00:52;;;;;;;20.70;17.02;;;22.00;81.70;;;;;;5076351;28;20244;-89
2022/08/19 12:03:19;;;;;;;18.00;16.13;;;21.90;81.10;;;;;;5075266;28;20545;-90
2022/08/19 12:05:45;;;;;;;17.10;15.32;;;21.90;81.20;;;;;;5075050;28;20207;-89
2022/08/19 12:08:12;;;;;;;18.33;16.35;;;21.90;81.30;;;;;;5076562;28;20178;-89
2022/08/19 12:10:38;;;;;;;21.02;17.98;;;21.90;81.10;;;;;;5075113;28;20309;-89
2022/08/19 12:13:06;;;;;;;19.33;16.98;;;21.90;81.10;;;;;;5074946;28;20168;-88
2022/08/19 12:15:40;;;;;;;22.88;19.13;;;21.90;80.90;;;;;;5075499;28;20203;-89
2022/08/19 12:18:07;;;;;;;20.77;18.52;;;21.70;80.70;;;;;;5075182;28;20212;-90
2022/08/19 12:20:35;;;;;;;18.05;16.15;;;21.70;80.90;;;;;;5074867;28;20528;-89
2022/08/19 12:23:01;;;;;;;16.80;15.00;;;21.70;81.00;;;;;;5074901;28;20183;-90
2022/08/19 12:25:27;;;;;;;17.73;14.65;;;21.70;81.50;;;;;;5076199;28;20225;-91
2022/08/19 12:27:52;;;;;;;13.73;12.40;;;21.80;81.50;;;;;;5076064;28;20224;-90
2022/08/19 12:30:18;;;;;;;13.57;12.27;;;21.70;81.10;;;;;;5077659;28;20546;-88
2022/08/19 12:32:43;;;;;;;13.40;11.98;;;21.80;80.80;;;;;;5075977;28;20195;-90
2022/08/19 12:35:11;;;;;;;13.13;11.50;;;21.90;80.90;;;;;;5075580;28;20705;-91
2022/08/19 12:37:37;;;;;;;10.77;9.68;;;21.90;81.50;;;;;;5075479;28;20179;-89
2022/08/19 12:40:03;;;;;;;15.23;11.23;;;22.00;81.20;;;;;;5076144;28;20225;-90
2022/08/19 12:42:30;;;;;;;16.08;10.90;;;21.90;80.80;;;;;;5074474;28;20176;-90
2022/08/19 12:44:55;;;;;;;13.77;12.32;;;22.00;81.10;;;;;;5074426;28;20201;-90
2022/08/19 12:47:21;;;;;;;12.80;10.93;;;22.00;80.60;;;;;;5075634;28;20195;-91
2022/08/19 12:49:48;;;;;;;12.55;11.35;;;22.20;80.50;;;;;;5074482;28;20224;-91
2022/08/19 12:52:16;;;;;;;14.25;12.15;;;22.30;79.70;;;;;;5074375;28;20654;-90
2022/08/19 12:54:42;;;;;;;13.57;12.10;;;22.30;79.70;;;;;;5074398;28;20171;-90
2022/08/19 12:57:10;;;;;;;13.68;11.55;;;22.40;79.80;;;;;;5074129;28;20282;-89